sensor_id;sensor_type;location;lat;lon;timestamp;P1;durP1;ratioP1;P2;durP2;ratioP2
43891;SDS011;29555;45.350;5.578;2022-11-18T00:00:30;8.55;;;2.38;;
43891;SDS011;29555;45.350;5.578;2022-11-18T00:02:56;1.83;;;1.17;;
43891;SDS011;29555;45.350;5.578;2022-11-18T00:05:21;5.85;;;1.00;;
43891;SDS011;29555;45.350;5.578;2022-11-18T00:07:47;1.75;;;0.63;;
43891;SDS011;29555;45.350;5.578;2022-11-18T00:10:12;11.70;;;0.85;;
43891;SDS011;29555;45.350;5.578;2022-11-18T00:12:38;4.15;;;0.60;;
43891;SDS011;29555;45.350;5.578;2022-11-18T00:15:22;3.00;;;1.10;;
43891;SDS011;29555;45.350;5.578;2022-11-18T00:17:47;1.13;;;0.55;;
43891;SDS011;29555;45.350;5.578;2022-11-18T00:20:13;2.83;;;0.50;;
43891;SDS011;29555;45.350;5.578;2022-11-18T00:22:39;1.17;;;0.88;;
43891;SDS011;29555;45.350;5.578;2022-11-18T00:25:04;1.52;;;0.85;;
43891;SDS011;29555;45.350;5.578;2022-11-18T00:27:30;4.75;;;1.25;;
43891;SDS011;29555;45.350;5.578;2022-11-18T00:29:56;4.28;;;0.77;;
43891;SDS011;29555;45.350;5.578;2022-11-18T00:32:21;5.05;;;0.98;;
43891;SDS011;29555;45.350;5.578;2022-11-18T00:34:47;0.98;;;0.77;;
43891;SDS011;29555;45.350;5.578;2022-11-18T00:37:12;1.58;;;0.55;;
43891;SDS011;29555;45.350;5.578;2022-11-18T00:39:38;1.38;;;0.77;;
43891;SDS011;29555;45.350;5.578;2022-11-18T00:42:03;2.85;;;0.73;;
43891;SDS011;29555;45.350;5.578;2022-11-18T00:44:47;6.35;;;1.38;;
43891;SDS011;29555;45.350;5.578;2022-11-18T00:47:12;3.50;;;0.98;;
43891;SDS011;29555;45.350;5.578;2022-11-18T00:49:38;4.80;;;1.40;;
43891;SDS011;29555;45.350;5.578;2022-11-18T00:52:03;2.55;;;0.82;;
43891;SDS011;29555;45.350;5.578;2022-11-18T00:54:29;2.58;;;1.08;;
43891;SDS011;29555;45.350;5.578;2022-11-18T00:56:55;3.60;;;1.15;;
43891;SDS011;29555;45.350;5.578;2022-11-18T00:59:20;2.65;;;0.40;;
43891;SDS011;29555;45.350;5.578;2022-11-18T01:01:46;0.20;;;0.20;;
43891;SDS011;29555;45.350;5.578;2022-11-18T01:04:13;1.92;;;0.38;;
43891;SDS011;29555;45.350;5.578;2022-11-18T01:06:38;1.00;;;0.45;;
43891;SDS011;29555;45.350;5.578;2022-11-18T01:09:04;0.82;;;0.82;;
43891;SDS011;29555;45.350;5.578;2022-11-18T01:11:29;1.50;;;0.47;;
43891;SDS011;29555;45.350;5.578;2022-11-18T01:14:14;1.73;;;0.98;;
43891;SDS011;29555;45.350;5.578;2022-11-18T01:16:39;2.70;;;1.25;;
43891;SDS011;29555;45.350;5.578;2022-11-18T01:19:05;6.28;;;1.05;;
43891;SDS011;29555;45.350;5.578;2022-11-18T01:21:30;2.67;;;0.52;;
43891;SDS011;29555;45.350;5.578;2022-11-18T01:23:56;4.00;;;1.15;;
43891;SDS011;29555;45.350;5.578;2022-11-18T01:26:21;3.53;;;0.57;;
43891;SDS011;29555;45.350;5.578;2022-11-18T01:28:46;4.85;;;1.30;;
43891;SDS011;29555;45.350;5.578;2022-11-18T01:31:13;3.03;;;0.93;;
43891;SDS011;29555;45.350;5.578;2022-11-18T01:33:41;0.68;;;0.63;;
43891;SDS011;29555;45.350;5.578;2022-11-18T01:36:40;2.30;;;0.63;;
43891;SDS011;29555;45.350;5.578;2022-11-18T01:38:59;0.90;;;0.75;;
43891;SDS011;29555;45.350;5.578;2022-11-18T01:41:25;4.95;;;1.10;;
43891;SDS011;29555;45.350;5.578;2022-11-18T01:46:24;1.85;;;1.48;;
43891;SDS011;29555;45.350;5.578;2022-11-18T01:48:54;2.05;;;1.55;;
43891;SDS011;29555;45.350;5.578;2022-11-18T01:51:32;0.38;;;0.38;;
43891;SDS011;29555;45.350;5.578;2022-11-18T01:54:05;1.30;;;0.60;;
43891;SDS011;29555;45.350;5.578;2022-11-18T01:56:41;2.88;;;0.60;;
43891;SDS011;29555;45.350;5.578;2022-11-18T01:59:17;1.48;;;1.05;;
43891;SDS011;29555;45.350;5.578;2022-11-18T02:01:44;2.50;;;1.17;;
43891;SDS011;29555;45.350;5.578;2022-11-18T02:04:10;2.38;;;1.17;;
43891;SDS011;29555;45.350;5.578;2022-11-18T02:06:36;4.95;;;1.40;;
43891;SDS011;29555;45.350;5.578;2022-11-18T02:09:02;4.55;;;0.52;;
43891;SDS011;29555;45.350;5.578;2022-11-18T02:11:28;3.78;;;1.58;;
43891;SDS011;29555;45.350;5.578;2022-11-18T02:14:13;0.75;;;0.75;;
43891;SDS011;29555;45.350;5.578;2022-11-18T02:22:09;11.63;;;1.30;;
43891;SDS011;29555;45.350;5.578;2022-11-18T02:30:10;2.83;;;0.85;;
43891;SDS011;29555;45.350;5.578;2022-11-18T02:32:42;0.75;;;0.47;;
43891;SDS011;29555;45.350;5.578;2022-11-18T02:40:24;1.05;;;0.68;;
43891;SDS011;29555;45.350;5.578;2022-11-18T02:43:02;3.25;;;0.88;;
43891;SDS011;29555;45.350;5.578;2022-11-18T02:45:30;0.88;;;0.47;;
43891;SDS011;29555;45.350;5.578;2022-11-18T02:47:58;3.38;;;0.55;;
43891;SDS011;29555;45.350;5.578;2022-11-18T02:50:28;1.65;;;0.55;;
43891;SDS011;29555;45.350;5.578;2022-11-18T02:52:56;0.70;;;0.70;;
43891;SDS011;29555;45.350;5.578;2022-11-18T02:55:24;4.03;;;0.70;;
43891;SDS011;29555;45.350;5.578;2022-11-18T02:57:53;2.17;;;0.95;;
43891;SDS011;29555;45.350;5.578;2022-11-18T03:00:19;1.15;;;0.70;;
43891;SDS011;29555;45.350;5.578;2022-11-18T03:02:46;0.38;;;0.38;;
43891;SDS011;29555;45.350;5.578;2022-11-18T03:05:18;1.35;;;0.45;;
43891;SDS011;29555;45.350;5.578;2022-11-18T03:08:10;0.85;;;0.50;;
43891;SDS011;29555;45.350;5.578;2022-11-18T03:10:42;2.45;;;1.23;;
43891;SDS011;29555;45.350;5.578;2022-11-18T03:13:16;2.40;;;0.80;;
43891;SDS011;29555;45.350;5.578;2022-11-18T03:15:50;1.73;;;0.60;;
43891;SDS011;29555;45.350;5.578;2022-11-18T03:18:31;1.50;;;0.55;;
43891;SDS011;29555;45.350;5.578;2022-11-18T03:23:34;3.30;;;0.85;;
43891;SDS011;29555;45.350;5.578;2022-11-18T03:26:10;1.08;;;0.77;;
43891;SDS011;29555;45.350;5.578;2022-11-18T03:34:13;2.95;;;1.45;;
43891;SDS011;29555;45.350;5.578;2022-11-18T03:36:46;2.83;;;1.45;;
43891;SDS011;29555;45.350;5.578;2022-11-18T03:39:14;1.60;;;1.33;;
43891;SDS011;29555;45.350;5.578;2022-11-18T03:41:45;13.82;;;1.30;;
43891;SDS011;29555;45.350;5.578;2022-11-18T03:44:15;2.60;;;0.90;;
43891;SDS011;29555;45.350;5.578;2022-11-18T03:46:49;1.17;;;0.95;;
43891;SDS011;29555;45.350;5.578;2022-11-18T03:49:19;3.92;;;1.58;;
43891;SDS011;29555;45.350;5.578;2022-11-18T03:51:53;1.08;;;0.90;;
43891;SDS011;29555;45.350;5.578;2022-11-18T03:54:23;1.13;;;1.02;;
43891;SDS011;29555;45.350;5.578;2022-11-18T03:56:54;0.77;;;0.75;;
43891;SDS011;29555;45.350;5.578;2022-11-18T04:02:20;1.25;;;0.52;;
43891;SDS011;29555;45.350;5.578;2022-11-18T04:04:49;0.40;;;0.30;;
43891;SDS011;29555;45.350;5.578;2022-11-18T04:09:54;0.95;;;0.55;;
43891;SDS011;29555;45.350;5.578;2022-11-18T04:12:23;0.77;;;0.50;;
43891;SDS011;29555;45.350;5.578;2022-11-18T04:14:52;0.52;;;0.45;;
43891;SDS011;29555;45.350;5.578;2022-11-18T04:17:20;0.50;;;0.50;;
43891;SDS011;29555;45.350;5.578;2022-11-18T04:19:47;2.90;;;0.63;;
43891;SDS011;29555;45.350;5.578;2022-11-18T04:22:12;1.08;;;0.47;;
43891;SDS011;29555;45.350;5.578;2022-11-18T04:24:38;0.38;;;0.38;;
43891;SDS011;29555;45.350;5.578;2022-11-18T04:27:04;0.10;;;0.10;;
43891;SDS011;29555;45.350;5.578;2022-11-18T04:29:30;1.63;;;0.70;;
43891;SDS011;29555;45.350;5.578;2022-11-18T04:31:56;2.67;;;0.25;;
43891;SDS011;29555;45.350;5.578;2022-11-18T04:34:22;0.17;;;0.17;;
43891;SDS011;29555;45.350;5.578;2022-11-18T04:36:48;0.95;;;0.32;;
43891;SDS011;29555;45.350;5.578;2022-11-18T04:39:13;0.08;;;0.08;;
43891;SDS011;29555;45.350;5.578;2022-11-18T04:41:39;1.55;;;0.30;;
43891;SDS011;29555;45.350;5.578;2022-11-18T04:44:20;0.28;;;0.20;;
43891;SDS011;29555;45.350;5.578;2022-11-18T04:46:46;0.20;;;0.20;;
43891;SDS011;29555;45.350;5.578;2022-11-18T04:49:12;2.20;;;0.40;;
43891;SDS011;29555;45.350;5.578;2022-11-18T04:51:39;0.10;;;0.10;;
43891;SDS011;29555;45.350;5.578;2022-11-18T04:54:05;0.28;;;0.22;;
43891;SDS011;29555;45.350;5.578;2022-11-18T04:56:31;0.85;;;0.20;;
43891;SDS011;29555;45.350;5.578;2022-11-18T04:59:00;0.52;;;0.40;;
43891;SDS011;29555;45.350;5.578;2022-11-18T05:01:27;0.75;;;0.35;;
43891;SDS011;29555;45.350;5.578;2022-11-18T05:03:53;3.83;;;0.32;;
43891;SDS011;29555;45.350;5.578;2022-11-18T05:06:19;0.70;;;0.35;;
43891;SDS011;29555;45.350;5.578;2022-11-18T05:08:45;0.20;;;0.17;;
43891;SDS011;29555;45.350;5.578;2022-11-18T05:11:11;0.10;;;0.10;;
43891;SDS011;29555;45.350;5.578;2022-11-18T05:13:54;0.28;;;0.22;;
43891;SDS011;29555;45.350;5.578;2022-11-18T05:16:20;0.20;;;0.17;;
43891;SDS011;29555;45.350;5.578;2022-11-18T05:18:45;0.47;;;0.47;;
43891;SDS011;29555;45.350;5.578;2022-11-18T05:21:11;1.38;;;0.25;;
43891;SDS011;29555;45.350;5.578;2022-11-18T05:23:37;0.28;;;0.22;;
43891;SDS011;29555;45.350;5.578;2022-11-18T05:26:05;2.05;;;0.28;;
43891;SDS011;29555;45.350;5.578;2022-11-18T05:28:32;0.30;;;0.10;;
43891;SDS011;29555;45.350;5.578;2022-11-18T05:30:58;0.10;;;0.10;;
43891;SDS011;29555;45.350;5.578;2022-11-18T05:33:24;2.45;;;0.25;;
43891;SDS011;29555;45.350;5.578;2022-11-18T05:35:50;0.17;;;0.10;;
43891;SDS011;29555;45.350;5.578;2022-11-18T05:38:15;2.38;;;0.70;;
43891;SDS011;29555;45.350;5.578;2022-11-18T05:40:41;0.30;;;0.30;;
43891;SDS011;29555;45.350;5.578;2022-11-18T05:43:10;0.10;;;0.10;;
43891;SDS011;29555;45.350;5.578;2022-11-18T05:45:36;0.25;;;0.10;;
43891;SDS011;29555;45.350;5.578;2022-11-18T05:48:05;5.60;;;0.20;;
43891;SDS011;29555;45.350;5.578;2022-11-18T05:50:32;3.30;;;0.28;;
43891;SDS011;29555;45.350;5.578;2022-11-18T05:53:00;0.70;;;0.20;;
43891;SDS011;29555;45.350;5.578;2022-11-18T05:55:29;3.72;;;0.50;;
43891;SDS011;29555;45.350;5.578;2022-11-18T05:57:59;0.88;;;0.30;;
43891;SDS011;29555;45.350;5.578;2022-11-18T06:00:24;3.60;;;0.20;;
43891;SDS011;29555;45.350;5.578;2022-11-18T06:02:50;1.88;;;0.40;;
43891;SDS011;29555;45.350;5.578;2022-11-18T06:05:18;0.55;;;0.30;;
43891;SDS011;29555;45.350;5.578;2022-11-18T06:07:45;0.17;;;0.13;;
43891;SDS011;29555;45.350;5.578;2022-11-18T06:10:11;0.75;;;0.57;;
43891;SDS011;29555;45.350;5.578;2022-11-18T06:12:42;0.32;;;0.20;;
43891;SDS011;29555;45.350;5.578;2022-11-18T06:15:15;1.10;;;0.40;;
43891;SDS011;29555;45.350;5.578;2022-11-18T06:17:50;1.80;;;0.45;;
43891;SDS011;29555;45.350;5.578;2022-11-18T06:20:21;1.95;;;1.00;;
43891;SDS011;29555;45.350;5.578;2022-11-18T06:22:48;1.08;;;0.35;;
43891;SDS011;29555;45.350;5.578;2022-11-18T06:25:16;1.95;;;0.75;;
43891;SDS011;29555;45.350;5.578;2022-11-18T06:27:42;1.25;;;0.55;;
43891;SDS011;29555;45.350;5.578;2022-11-18T06:30:08;4.13;;;1.15;;
43891;SDS011;29555;45.350;5.578;2022-11-18T06:32:34;1.80;;;0.77;;
43891;SDS011;29555;45.350;5.578;2022-11-18T06:34:59;2.22;;;0.85;;
43891;SDS011;29555;45.350;5.578;2022-11-18T06:37:25;0.22;;;0.22;;
43891;SDS011;29555;45.350;5.578;2022-11-18T06:39:50;1.85;;;1.10;;
43891;SDS011;29555;45.350;5.578;2022-11-18T06:42:16;0.85;;;0.63;;
43891;SDS011;29555;45.350;5.578;2022-11-18T06:45:00;0.55;;;0.50;;
43891;SDS011;29555;45.350;5.578;2022-11-18T06:47:26;1.65;;;0.80;;
43891;SDS011;29555;45.350;5.578;2022-11-18T06:49:52;0.75;;;0.60;;
43891;SDS011;29555;45.350;5.578;2022-11-18T06:52:17;1.92;;;0.80;;
43891;SDS011;29555;45.350;5.578;2022-11-18T06:54:43;0.47;;;0.47;;
43891;SDS011;29555;45.350;5.578;2022-11-18T06:57:08;0.20;;;0.20;;
43891;SDS011;29555;45.350;5.578;2022-11-18T06:59:33;0.30;;;0.25;;
43891;SDS011;29555;45.350;5.578;2022-11-18T07:01:59;1.20;;;0.45;;
43891;SDS011;29555;45.350;5.578;2022-11-18T07:04:24;1.75;;;0.98;;
43891;SDS011;29555;45.350;5.578;2022-11-18T07:06:50;1.75;;;0.65;;
43891;SDS011;29555;45.350;5.578;2022-11-18T07:09:15;2.30;;;0.75;;
43891;SDS011;29555;45.350;5.578;2022-11-18T07:11:41;1.00;;;0.68;;
43891;SDS011;29555;45.350;5.578;2022-11-18T07:14:07;1.30;;;0.95;;
43891;SDS011;29555;45.350;5.578;2022-11-18T07:16:33;1.58;;;0.57;;
43891;SDS011;29555;45.350;5.578;2022-11-18T07:19:00;6.72;;;1.20;;
43891;SDS011;29555;45.350;5.578;2022-11-18T07:21:26;22.52;;;7.15;;
43891;SDS011;29555;45.350;5.578;2022-11-18T07:23:53;39.15;;;17.08;;
43891;SDS011;29555;45.350;5.578;2022-11-18T07:26:20;36.20;;;16.75;;
43891;SDS011;29555;45.350;5.578;2022-11-18T07:28:45;45.08;;;22.40;;
43891;SDS011;29555;45.350;5.578;2022-11-18T07:31:12;31.52;;;17.60;;
43891;SDS011;29555;45.350;5.578;2022-11-18T07:33:39;12.70;;;6.93;;
43891;SDS011;29555;45.350;5.578;2022-11-18T07:36:07;6.32;;;3.17;;
43891;SDS011;29555;45.350;5.578;2022-11-18T07:38:34;17.48;;;3.08;;
43891;SDS011;29555;45.350;5.578;2022-11-18T07:43:42;5.28;;;2.17;;
43891;SDS011;29555;45.350;5.578;2022-11-18T07:48:36;1.90;;;0.98;;
43891;SDS011;29555;45.350;5.578;2022-11-18T07:51:02;2.25;;;1.85;;
43891;SDS011;29555;45.350;5.578;2022-11-18T07:53:30;5.05;;;2.13;;
43891;SDS011;29555;45.350;5.578;2022-11-18T07:55:56;3.25;;;1.85;;
43891;SDS011;29555;45.350;5.578;2022-11-18T07:58:22;1.70;;;1.60;;
43891;SDS011;29555;45.350;5.578;2022-11-18T08:00:47;3.42;;;1.02;;
43891;SDS011;29555;45.350;5.578;2022-11-18T08:03:13;2.08;;;0.60;;
43891;SDS011;29555;45.350;5.578;2022-11-18T08:05:38;6.95;;;1.08;;
43891;SDS011;29555;45.350;5.578;2022-11-18T08:08:04;1.48;;;1.17;;
43891;SDS011;29555;45.350;5.578;2022-11-18T08:10:29;3.33;;;1.48;;
43891;SDS011;29555;45.350;5.578;2022-11-18T08:12:55;4.55;;;1.00;;
43891;SDS011;29555;45.350;5.578;2022-11-18T08:15:21;3.92;;;1.10;;
43891;SDS011;29555;45.350;5.578;2022-11-18T08:17:47;7.00;;;2.35;;
43891;SDS011;29555;45.350;5.578;2022-11-18T08:20:13;3.38;;;1.35;;
43891;SDS011;29555;45.350;5.578;2022-11-18T08:22:38;2.78;;;1.77;;
43891;SDS011;29555;45.350;5.578;2022-11-18T08:25:04;12.73;;;1.80;;
43891;SDS011;29555;45.350;5.578;2022-11-18T08:27:30;3.05;;;1.33;;
43891;SDS011;29555;45.350;5.578;2022-11-18T08:29:56;10.10;;;1.92;;
43891;SDS011;29555;45.350;5.578;2022-11-18T08:32:21;5.55;;;1.83;;
43891;SDS011;29555;45.350;5.578;2022-11-18T08:34:47;3.15;;;1.55;;
43891;SDS011;29555;45.350;5.578;2022-11-18T08:37:12;4.38;;;2.03;;
43891;SDS011;29555;45.350;5.578;2022-11-18T08:39:38;12.10;;;3.03;;
43891;SDS011;29555;45.350;5.578;2022-11-18T08:42:03;7.72;;;2.60;;
43891;SDS011;29555;45.350;5.578;2022-11-18T08:44:29;5.63;;;2.53;;
43891;SDS011;29555;45.350;5.578;2022-11-18T08:46:57;10.88;;;1.65;;
43891;SDS011;29555;45.350;5.578;2022-11-18T08:49:22;5.15;;;1.40;;
43891;SDS011;29555;45.350;5.578;2022-11-18T08:51:48;3.30;;;1.98;;
43891;SDS011;29555;45.350;5.578;2022-11-18T08:54:13;3.78;;;1.13;;
43891;SDS011;29555;45.350;5.578;2022-11-18T08:56:39;2.78;;;1.50;;
43891;SDS011;29555;45.350;5.578;2022-11-18T08:59:04;1.17;;;0.88;;
43891;SDS011;29555;45.350;5.578;2022-11-18T09:01:30;2.67;;;1.13;;
43891;SDS011;29555;45.350;5.578;2022-11-18T09:03:55;0.98;;;0.70;;
43891;SDS011;29555;45.350;5.578;2022-11-18T09:06:22;8.10;;;1.38;;
43891;SDS011;29555;45.350;5.578;2022-11-18T09:08:51;3.35;;;1.15;;
43891;SDS011;29555;45.350;5.578;2022-11-18T09:11:18;3.80;;;1.75;;
43891;SDS011;29555;45.350;5.578;2022-11-18T09:13:52;5.72;;;2.58;;
43891;SDS011;29555;45.350;5.578;2022-11-18T09:16:18;4.70;;;2.33;;
43891;SDS011;29555;45.350;5.578;2022-11-18T09:18:47;3.40;;;1.35;;
43891;SDS011;29555;45.350;5.578;2022-11-18T09:21:12;5.10;;;3.10;;
43891;SDS011;29555;45.350;5.578;2022-11-18T09:23:37;4.40;;;1.70;;
43891;SDS011;29555;45.350;5.578;2022-11-18T09:26:05;3.35;;;1.35;;
43891;SDS011;29555;45.350;5.578;2022-11-18T09:28:32;5.05;;;2.45;;
43891;SDS011;29555;45.350;5.578;2022-11-18T09:30:57;1.95;;;1.73;;
43891;SDS011;29555;45.350;5.578;2022-11-18T09:33:24;3.05;;;2.10;;
43891;SDS011;29555;45.350;5.578;2022-11-18T09:35:49;3.58;;;3.03;;
43891;SDS011;29555;45.350;5.578;2022-11-18T09:38:15;1.45;;;1.17;;
43891;SDS011;29555;45.350;5.578;2022-11-18T09:40:54;7.35;;;1.73;;
43891;SDS011;29555;45.350;5.578;2022-11-18T09:43:59;4.25;;;1.17;;
43891;SDS011;29555;45.350;5.578;2022-11-18T09:49:18;3.50;;;1.67;;
43891;SDS011;29555;45.350;5.578;2022-11-18T09:51:50;5.47;;;0.85;;
43891;SDS011;29555;45.350;5.578;2022-11-18T09:54:23;1.98;;;1.75;;
43891;SDS011;29555;45.350;5.578;2022-11-18T09:56:51;1.45;;;1.33;;
43891;SDS011;29555;45.350;5.578;2022-11-18T09:59:19;0.68;;;0.65;;
43891;SDS011;29555;45.350;5.578;2022-11-18T10:01:47;2.85;;;2.53;;
43891;SDS011;29555;45.350;5.578;2022-11-18T10:04:15;6.00;;;3.33;;
43891;SDS011;29555;45.350;5.578;2022-11-18T10:06:43;3.70;;;2.10;;
43891;SDS011;29555;45.350;5.578;2022-11-18T10:09:19;6.20;;;2.45;;
43891;SDS011;29555;45.350;5.578;2022-11-18T10:12:08;4.07;;;2.00;;
43891;SDS011;29555;45.350;5.578;2022-11-18T10:21:28;0.75;;;0.30;;
43891;SDS011;29555;45.350;5.578;2022-11-18T10:24:11;0.20;;;0.20;;
43891;SDS011;29555;45.350;5.578;2022-11-18T10:26:43;0.63;;;0.30;;
43891;SDS011;29555;45.350;5.578;2022-11-18T10:29:08;4.07;;;0.52;;
43891;SDS011;29555;45.350;5.578;2022-11-18T10:31:51;3.03;;;0.52;;
43891;SDS011;29555;45.350;5.578;2022-11-18T10:34:29;0.30;;;0.25;;
43891;SDS011;29555;45.350;5.578;2022-11-18T10:37:06;0.90;;;0.13;;
43891;SDS011;29555;45.350;5.578;2022-11-18T10:39:53;1.25;;;0.63;;
43891;SDS011;29555;45.350;5.578;2022-11-18T10:50:44;1.63;;;0.88;;
43891;SDS011;29555;45.350;5.578;2022-11-18T10:53:29;0.43;;;0.43;;
43891;SDS011;29555;45.350;5.578;2022-11-18T10:56:07;2.83;;;1.00;;
43891;SDS011;29555;45.350;5.578;2022-11-18T10:58:36;15.02;;;0.70;;
43891;SDS011;29555;45.350;5.578;2022-11-18T11:01:07;1.98;;;0.77;;
43891;SDS011;29555;45.350;5.578;2022-11-18T11:06:32;1.23;;;0.73;;
43891;SDS011;29555;45.350;5.578;2022-11-18T11:14:21;3.10;;;1.25;;
43891;SDS011;29555;45.350;5.578;2022-11-18T11:19:51;1.77;;;0.95;;
43891;SDS011;29555;45.350;5.578;2022-11-18T11:22:29;1.42;;;0.73;;
43891;SDS011;29555;45.350;5.578;2022-11-18T11:24:55;0.98;;;0.30;;
43891;SDS011;29555;45.350;5.578;2022-11-18T11:27:28;0.85;;;0.73;;
43891;SDS011;29555;45.350;5.578;2022-11-18T11:30:38;0.10;;;0.10;;
43891;SDS011;29555;45.350;5.578;2022-11-18T11:41:09;18.20;;;5.90;;
43891;SDS011;29555;45.350;5.578;2022-11-18T11:49:41;4.80;;;2.85;;
43891;SDS011;29555;45.350;5.578;2022-11-18T11:52:30;32.70;;;15.25;;
43891;SDS011;29555;45.350;5.578;2022-11-18T11:55:07;30.70;;;14.52;;
43891;SDS011;29555;45.350;5.578;2022-11-18T12:00:48;9.27;;;5.40;;
43891;SDS011;29555;45.350;5.578;2022-11-18T12:06:08;13.25;;;5.85;;
43891;SDS011;29555;45.350;5.578;2022-11-18T12:08:34;9.32;;;3.20;;
43891;SDS011;29555;45.350;5.578;2022-11-18T12:14:19;4.20;;;2.08;;
43891;SDS011;29555;45.350;5.578;2022-11-18T12:17:30;19.10;;;9.13;;
43891;SDS011;29555;45.350;5.578;2022-11-18T12:19:44;3.38;;;2.50;;
43891;SDS011;29555;45.350;5.578;2022-11-18T12:22:09;2.33;;;1.20;;
43891;SDS011;29555;45.350;5.578;2022-11-18T12:27:05;8.93;;;5.07;;
43891;SDS011;29555;45.350;5.578;2022-11-18T12:29:40;8.27;;;3.92;;
43891;SDS011;29555;45.350;5.578;2022-11-18T12:32:29;7.85;;;5.35;;
43891;SDS011;29555;45.350;5.578;2022-11-18T12:35:03;3.88;;;2.55;;
43891;SDS011;29555;45.350;5.578;2022-11-18T12:40:02;0.50;;;0.40;;
43891;SDS011;29555;45.350;5.578;2022-11-18T12:42:41;2.20;;;1.25;;
43891;SDS011;29555;45.350;5.578;2022-11-18T12:50:49;0.52;;;0.52;;
43891;SDS011;29555;45.350;5.578;2022-11-18T12:56:27;9.25;;;0.47;;
43891;SDS011;29555;45.350;5.578;2022-11-18T12:58:53;3.08;;;0.45;;
43891;SDS011;29555;45.350;5.578;2022-11-18T13:01:31;1.30;;;0.50;;
43891;SDS011;29555;45.350;5.578;2022-11-18T13:04:07;2.60;;;0.55;;
43891;SDS011;29555;45.350;5.578;2022-11-18T13:06:40;3.28;;;0.98;;
43891;SDS011;29555;45.350;5.578;2022-11-18T13:09:11;1.63;;;0.45;;
43891;SDS011;29555;45.350;5.578;2022-11-18T13:11:52;0.35;;;0.30;;
43891;SDS011;29555;45.350;5.578;2022-11-18T13:14:22;0.82;;;0.70;;
43891;SDS011;29555;45.350;5.578;2022-11-18T13:22:52;3.53;;;1.25;;
43891;SDS011;29555;45.350;5.578;2022-11-18T13:25:38;2.28;;;2.08;;
43891;SDS011;29555;45.350;5.578;2022-11-18T13:31:13;1.35;;;1.25;;
43891;SDS011;29555;45.350;5.578;2022-11-18T13:33:40;4.47;;;1.13;;
43891;SDS011;29555;45.350;5.578;2022-11-18T13:36:19;4.38;;;1.23;;
43891;SDS011;29555;45.350;5.578;2022-11-18T13:38:54;2.60;;;0.50;;
43891;SDS011;29555;45.350;5.578;2022-11-18T13:41:23;3.50;;;0.47;;
43891;SDS011;29555;45.350;5.578;2022-11-18T13:44:08;0.63;;;0.40;;
43891;SDS011;29555;45.350;5.578;2022-11-18T13:46:45;1.75;;;0.43;;
43891;SDS011;29555;45.350;5.578;2022-11-18T13:49:15;1.20;;;0.60;;
43891;SDS011;29555;45.350;5.578;2022-11-18T13:51:43;1.50;;;0.85;;
43891;SDS011;29555;45.350;5.578;2022-11-18T13:54:10;7.97;;;1.17;;
43891;SDS011;29555;45.350;5.578;2022-11-18T13:59:12;3.20;;;0.73;;
43891;SDS011;29555;45.350;5.578;2022-11-18T14:01:42;5.22;;;1.45;;
43891;SDS011;29555;45.350;5.578;2022-11-18T14:07:14;0.50;;;0.50;;
43891;SDS011;29555;45.350;5.578;2022-11-18T14:10:01;1.80;;;0.70;;
43891;SDS011;29555;45.350;5.578;2022-11-18T14:12:32;3.15;;;0.60;;
43891;SDS011;29555;45.350;5.578;2022-11-18T14:15:15;0.50;;;0.47;;
43891;SDS011;29555;45.350;5.578;2022-11-18T14:17:57;1.90;;;0.73;;
43891;SDS011;29555;45.350;5.578;2022-11-18T14:20:24;2.70;;;0.90;;
43891;SDS011;29555;45.350;5.578;2022-11-18T14:22:53;2.03;;;0.70;;
43891;SDS011;29555;45.350;5.578;2022-11-18T14:31:03;0.88;;;0.73;;
43891;SDS011;29555;45.350;5.578;2022-11-18T14:33:41;6.15;;;0.40;;
43891;SDS011;29555;45.350;5.578;2022-11-18T14:36:10;2.83;;;0.68;;
43891;SDS011;29555;45.350;5.578;2022-11-18T14:38:45;1.42;;;0.68;;
43891;SDS011;29555;45.350;5.578;2022-11-18T14:41:15;1.42;;;0.90;;
43891;SDS011;29555;45.350;5.578;2022-11-18T14:44:05;14.32;;;8.20;;
43891;SDS011;29555;45.350;5.578;2022-11-18T14:46:31;40.65;;;20.38;;
43891;SDS011;29555;45.350;5.578;2022-11-18T14:48:58;15.57;;;6.22;;
43891;SDS011;29555;45.350;5.578;2022-11-18T14:51:26;6.70;;;2.20;;
43891;SDS011;29555;45.350;5.578;2022-11-18T14:53:52;3.63;;;1.95;;
43891;SDS011;29555;45.350;5.578;2022-11-18T14:58:53;5.38;;;1.55;;
43891;SDS011;29555;45.350;5.578;2022-11-18T15:01:19;10.35;;;5.18;;
43891;SDS011;29555;45.350;5.578;2022-11-18T15:03:45;7.45;;;3.13;;
43891;SDS011;29555;45.350;5.578;2022-11-18T15:06:14;2.70;;;1.38;;
43891;SDS011;29555;45.350;5.578;2022-11-18T15:08:43;3.78;;;1.02;;
43891;SDS011;29555;45.350;5.578;2022-11-18T15:11:10;1.33;;;0.70;;
43891;SDS011;29555;45.350;5.578;2022-11-18T15:13:36;3.42;;;1.10;;
43891;SDS011;29555;45.350;5.578;2022-11-18T15:18:49;5.85;;;5.07;;
43891;SDS011;29555;45.350;5.578;2022-11-18T15:21:16;3.42;;;1.20;;
43891;SDS011;29555;45.350;5.578;2022-11-18T15:23:41;5.00;;;2.78;;
43891;SDS011;29555;45.350;5.578;2022-11-18T15:28:53;4.00;;;1.98;;
43891;SDS011;29555;45.350;5.578;2022-11-18T15:31:20;6.10;;;2.95;;
43891;SDS011;29555;45.350;5.578;2022-11-18T15:33:48;4.07;;;2.28;;
43891;SDS011;29555;45.350;5.578;2022-11-18T15:36:16;8.00;;;5.47;;
43891;SDS011;29555;45.350;5.578;2022-11-18T15:38:43;12.20;;;4.40;;
43891;SDS011;29555;45.350;5.578;2022-11-18T15:41:14;5.30;;;3.22;;
43891;SDS011;29555;45.350;5.578;2022-11-18T15:46:07;18.52;;;8.77;;
43891;SDS011;29555;45.350;5.578;2022-11-18T15:48:33;17.27;;;7.28;;
43891;SDS011;29555;45.350;5.578;2022-11-18T15:50:59;8.82;;;2.80;;
43891;SDS011;29555;45.350;5.578;2022-11-18T15:53:25;0.75;;;0.60;;
43891;SDS011;29555;45.350;5.578;2022-11-18T15:55:50;7.13;;;3.95;;
43891;SDS011;29555;45.350;5.578;2022-11-18T15:58:15;12.13;;;6.50;;
43891;SDS011;29555;45.350;5.578;2022-11-18T16:00:41;10.57;;;7.60;;
43891;SDS011;29555;45.350;5.578;2022-11-18T16:03:06;10.68;;;3.45;;
43891;SDS011;29555;45.350;5.578;2022-11-18T16:05:32;5.55;;;0.93;;
43891;SDS011;29555;45.350;5.578;2022-11-18T16:07:57;8.57;;;1.33;;
43891;SDS011;29555;45.350;5.578;2022-11-18T16:10:22;3.35;;;1.05;;
43891;SDS011;29555;45.350;5.578;2022-11-18T16:13:07;2.10;;;1.20;;
43891;SDS011;29555;45.350;5.578;2022-11-18T16:15:33;5.47;;;1.33;;
43891;SDS011;29555;45.350;5.578;2022-11-18T16:18:12;4.20;;;2.20;;
43891;SDS011;29555;45.350;5.578;2022-11-18T16:20:39;5.88;;;4.00;;
43891;SDS011;29555;45.350;5.578;2022-11-18T16:23:04;7.35;;;4.13;;
43891;SDS011;29555;45.350;5.578;2022-11-18T16:25:30;12.95;;;3.65;;
43891;SDS011;29555;45.350;5.578;2022-11-18T16:27:55;5.80;;;3.42;;
43891;SDS011;29555;45.350;5.578;2022-11-18T16:30:21;9.27;;;4.20;;
43891;SDS011;29555;45.350;5.578;2022-11-18T16:33:05;10.93;;;8.07;;
43891;SDS011;29555;45.350;5.578;2022-11-18T16:35:31;9.65;;;6.03;;
43891;SDS011;29555;45.350;5.578;2022-11-18T16:37:56;11.40;;;4.70;;
43891;SDS011;29555;45.350;5.578;2022-11-18T16:40:21;8.30;;;5.15;;
43891;SDS011;29555;45.350;5.578;2022-11-18T16:42:47;9.68;;;4.43;;
43891;SDS011;29555;45.350;5.578;2022-11-18T16:45:16;11.95;;;4.63;;
43891;SDS011;29555;45.350;5.578;2022-11-18T16:47:42;9.40;;;4.93;;
43891;SDS011;29555;45.350;5.578;2022-11-18T16:50:08;5.40;;;3.35;;
43891;SDS011;29555;45.350;5.578;2022-11-18T16:52:34;4.13;;;3.15;;
43891;SDS011;29555;45.350;5.578;2022-11-18T16:54:59;8.30;;;5.07;;
43891;SDS011;29555;45.350;5.578;2022-11-18T16:57:25;8.73;;;4.78;;
43891;SDS011;29555;45.350;5.578;2022-11-18T16:59:50;7.13;;;4.90;;
43891;SDS011;29555;45.350;5.578;2022-11-18T17:02:16;13.75;;;8.35;;
43891;SDS011;29555;45.350;5.578;2022-11-18T17:04:44;20.58;;;9.52;;
43891;SDS011;29555;45.350;5.578;2022-11-18T17:07:09;17.85;;;9.27;;
43891;SDS011;29555;45.350;5.578;2022-11-18T17:09:35;14.15;;;6.82;;
43891;SDS011;29555;45.350;5.578;2022-11-18T17:12:01;7.38;;;5.35;;